sensor_id;sensor_type;location;lat;lon;timestamp;P1;durP1;ratioP1;P2;durP2;ratioP2
69005;SDS011;56061;51.748;19.620;2022-07-23T00:00:17;13.00;;;8.10;;
69005;SDS011;56061;51.748;19.620;2022-07-23T00:02:45;12.60;;;8.10;;
69005;SDS011;56061;51.748;19.620;2022-07-23T00:05:12;13.40;;;8.40;;
69005;SDS011;56061;51.748;19.620;2022-07-23T00:07:39;12.30;;;8.00;;
69005;SDS011;56061;51.748;19.620;2022-07-23T00:10:06;10.80;;;7.60;;
69005;SDS011;56061;51.748;19.620;2022-07-23T00:12:33;12.30;;;7.70;;
69005;SDS011;56061;51.748;19.620;2022-07-23T00:15:03;12.70;;;8.30;;
69005;SDS011;56061;51.748;19.620;2022-07-23T00:17:31;13.00;;;8.50;;
69005;SDS011;56061;51.748;19.620;2022-07-23T00:19:58;12.80;;;8.70;;
69005;SDS011;56061;51.748;19.620;2022-07-23T00:22:25;13.00;;;8.70;;
69005;SDS011;56061;51.748;19.620;2022-07-23T00:24:53;13.70;;;8.60;;
69005;SDS011;56061;51.748;19.620;2022-07-23T00:27:40;13.60;;;9.10;;
69005;SDS011;56061;51.748;19.620;2022-07-23T00:30:07;12.70;;;8.40;;
69005;SDS011;56061;51.748;19.620;2022-07-23T00:32:57;13.50;;;8.50;;
69005;SDS011;56061;51.748;19.620;2022-07-23T00:35:27;12.80;;;8.50;;
69005;SDS011;56061;51.748;19.620;2022-07-23T00:37:56;12.30;;;7.70;;
69005;SDS011;56061;51.748;19.620;2022-07-23T00:40:23;13.80;;;8.80;;
69005;SDS011;56061;51.748;19.620;2022-07-23T00:42:51;12.70;;;8.70;;
69005;SDS011;56061;51.748;19.620;2022-07-23T00:45:18;13.40;;;8.50;;
69005;SDS011;56061;51.748;19.620;2022-07-23T00:47:45;15.00;;;8.40;;
69005;SDS011;56061;51.748;19.620;2022-07-23T00:50:12;13.80;;;8.10;;
69005;SDS011;56061;51.748;19.620;2022-07-23T00:52:39;13.70;;;9.20;;
69005;SDS011;56061;51.748;19.620;2022-07-23T00:55:08;14.20;;;10.20;;
69005;SDS011;56061;51.748;19.620;2022-07-23T00:57:37;17.20;;;10.80;;
69005;SDS011;56061;51.748;19.620;2022-07-23T01:00:05;16.00;;;10.30;;
69005;SDS011;56061;51.748;19.620;2022-07-23T01:02:34;15.40;;;10.20;;
69005;SDS011;56061;51.748;19.620;2022-07-23T01:05:01;14.60;;;9.60;;
69005;SDS011;56061;51.748;19.620;2022-07-23T01:07:28;15.30;;;10.00;;
69005;SDS011;56061;51.748;19.620;2022-07-23T01:09:55;15.10;;;9.40;;
69005;SDS011;56061;51.748;19.620;2022-07-23T01:12:22;14.10;;;8.30;;
69005;SDS011;56061;51.748;19.620;2022-07-23T01:14:58;13.40;;;8.80;;
69005;SDS011;56061;51.748;19.620;2022-07-23T01:17:26;13.60;;;8.50;;
69005;SDS011;56061;51.748;19.620;2022-07-23T01:19:54;14.00;;;9.60;;
69005;SDS011;56061;51.748;19.620;2022-07-23T01:22:21;18.80;;;10.60;;
69005;SDS011;56061;51.748;19.620;2022-07-23T01:24:49;15.00;;;9.90;;
69005;SDS011;56061;51.748;19.620;2022-07-23T01:27:15;20.50;;;10.90;;
69005;SDS011;56061;51.748;19.620;2022-07-23T01:29:44;16.10;;;10.90;;
69005;SDS011;56061;51.748;19.620;2022-07-23T01:32:10;15.70;;;10.80;;
69005;SDS011;56061;51.748;19.620;2022-07-23T01:34:37;15.70;;;10.40;;
69005;SDS011;56061;51.748;19.620;2022-07-23T01:37:04;16.70;;;10.90;;
69005;SDS011;56061;51.748;19.620;2022-07-23T01:39:30;17.10;;;10.70;;
69005;SDS011;56061;51.748;19.620;2022-07-23T01:41:58;17.10;;;10.40;;
69005;SDS011;56061;51.748;19.620;2022-07-23T01:44:25;15.50;;;10.10;;
69005;SDS011;56061;51.748;19.620;2022-07-23T01:46:51;13.40;;;7.90;;
69005;SDS011;56061;51.748;19.620;2022-07-23T01:49:18;15.40;;;9.10;;
69005;SDS011;56061;51.748;19.620;2022-07-23T01:51:45;16.80;;;10.10;;
69005;SDS011;56061;51.748;19.620;2022-07-23T01:54:33;14.90;;;9.80;;
69005;SDS011;56061;51.748;19.620;2022-07-23T01:57:00;14.70;;;9.80;;
69005;SDS011;56061;51.748;19.620;2022-07-23T01:59:27;14.30;;;9.40;;
69005;SDS011;56061;51.748;19.620;2022-07-23T02:01:54;13.30;;;9.10;;
69005;SDS011;56061;51.748;19.620;2022-07-23T02:04:22;13.10;;;9.00;;
69005;SDS011;56061;51.748;19.620;2022-07-23T02:06:51;16.10;;;10.90;;
69005;SDS011;56061;51.748;19.620;2022-07-23T02:09:19;19.40;;;11.10;;
69005;SDS011;56061;51.748;19.620;2022-07-23T02:11:56;16.30;;;11.50;;
69005;SDS011;56061;51.748;19.620;2022-07-23T02:14:25;15.70;;;10.90;;
69005;SDS011;56061;51.748;19.620;2022-07-23T02:16:52;16.50;;;10.70;;
69005;SDS011;56061;51.748;19.620;2022-07-23T02:19:19;14.40;;;10.50;;
69005;SDS011;56061;51.748;19.620;2022-07-23T02:21:45;17.40;;;10.30;;
69005;SDS011;56061;51.748;19.620;2022-07-23T02:24:12;17.90;;;11.20;;
69005;SDS011;56061;51.748;19.620;2022-07-23T02:26:39;14.70;;;10.10;;
69005;SDS011;56061;51.748;19.620;2022-07-23T02:29:06;15.70;;;10.30;;
69005;SDS011;56061;51.748;19.620;2022-07-23T02:31:33;18.00;;;10.70;;
69005;SDS011;56061;51.748;19.620;2022-07-23T02:34:00;18.00;;;11.20;;
69005;SDS011;56061;51.748;19.620;2022-07-23T02:36:28;15.50;;;10.30;;
69005;SDS011;56061;51.748;19.620;2022-07-23T02:38:54;16.10;;;10.40;;
69005;SDS011;56061;51.748;19.620;2022-07-23T02:41:21;15.80;;;10.30;;
69005;SDS011;56061;51.748;19.620;2022-07-23T02:43:48;16.70;;;10.80;;
69005;SDS011;56061;51.748;19.620;2022-07-23T02:46:14;14.60;;;9.70;;
69005;SDS011;56061;51.748;19.620;2022-07-23T02:48:41;15.70;;;11.00;;
69005;SDS011;56061;51.748;19.620;2022-07-23T02:51:08;16.10;;;10.30;;
69005;SDS011;56061;51.748;19.620;2022-07-23T02:53:40;14.10;;;10.00;;
69005;SDS011;56061;51.748;19.620;2022-07-23T02:56:07;14.80;;;9.80;;
69005;SDS011;56061;51.748;19.620;2022-07-23T02:58:33;14.90;;;10.30;;
69005;SDS011;56061;51.748;19.620;2022-07-23T03:01:00;16.50;;;10.10;;
69005;SDS011;56061;51.748;19.620;2022-07-23T03:03:26;15.20;;;9.40;;
69005;SDS011;56061;51.748;19.620;2022-07-23T03:05:55;14.70;;;9.00;;
69005;SDS011;56061;51.748;19.620;2022-07-23T03:08:22;14.00;;;9.60;;
69005;SDS011;56061;51.748;19.620;2022-07-23T03:10:49;15.90;;;9.20;;
69005;SDS011;56061;51.748;19.620;2022-07-23T03:13:16;14.60;;;8.90;;
69005;SDS011;56061;51.748;19.620;2022-07-23T03:15:42;14.90;;;10.30;;
69005;SDS011;56061;51.748;19.620;2022-07-23T03:18:09;18.30;;;10.50;;
69005;SDS011;56061;51.748;19.620;2022-07-23T03:20:36;15.70;;;9.40;;
69005;SDS011;56061;51.748;19.620;2022-07-23T03:23:02;15.30;;;10.60;;
69005;SDS011;56061;51.748;19.620;2022-07-23T03:25:29;15.80;;;10.90;;
69005;SDS011;56061;51.748;19.620;2022-07-23T03:27:55;17.10;;;10.00;;
69005;SDS011;56061;51.748;19.620;2022-07-23T03:30:22;14.00;;;9.50;;
69005;SDS011;56061;51.748;19.620;2022-07-23T03:32:48;17.40;;;10.20;;
69005;SDS011;56061;51.748;19.620;2022-07-23T03:35:15;15.20;;;10.10;;
69005;SDS011;56061;51.748;19.620;2022-07-23T03:37:42;16.30;;;9.70;;
69005;SDS011;56061;51.748;19.620;2022-07-23T03:40:12;16.40;;;10.40;;
69005;SDS011;56061;51.748;19.620;2022-07-23T03:42:38;15.80;;;10.40;;
69005;SDS011;56061;51.748;19.620;2022-07-23T03:45:08;17.50;;;11.20;;
69005;SDS011;56061;51.748;19.620;2022-07-23T03:47:35;15.90;;;10.60;;
69005;SDS011;56061;51.748;19.620;2022-07-23T03:50:02;14.00;;;10.00;;
69005;SDS011;56061;51.748;19.620;2022-07-23T03:52:29;16.80;;;9.50;;
69005;SDS011;56061;51.748;19.620;2022-07-23T03:54:56;12.80;;;9.30;;
69005;SDS011;56061;51.748;19.620;2022-07-23T03:57:22;14.40;;;9.60;;
69005;SDS011;56061;51.748;19.620;2022-07-23T03:59:49;15.40;;;9.30;;
69005;SDS011;56061;51.748;19.620;2022-07-23T04:02:16;15.30;;;9.60;;
69005;SDS011;56061;51.748;19.620;2022-07-23T04:04:42;15.80;;;10.50;;
69005;SDS011;56061;51.748;19.620;2022-07-23T04:07:09;16.30;;;10.90;;
69005;SDS011;56061;51.748;19.620;2022-07-23T04:09:35;13.60;;;9.70;;
69005;SDS011;56061;51.748;19.620;2022-07-23T04:12:02;14.30;;;9.80;;
69005;SDS011;56061;51.748;19.620;2022-07-23T04:14:29;16.80;;;10.70;;
69005;SDS011;56061;51.748;19.620;2022-07-23T04:16:56;16.10;;;9.20;;
69005;SDS011;56061;51.748;19.620;2022-07-23T04:19:23;17.30;;;10.50;;
69005;SDS011;56061;51.748;19.620;2022-07-23T04:21:49;15.80;;;9.60;;
69005;SDS011;56061;51.748;19.620;2022-07-23T04:24:16;16.20;;;10.00;;
69005;SDS011;56061;51.748;19.620;2022-07-23T04:26:43;14.90;;;9.20;;
69005;SDS011;56061;51.748;19.620;2022-07-23T04:29:10;16.70;;;10.20;;
69005;SDS011;56061;51.748;19.620;2022-07-23T04:31:37;17.20;;;10.70;;
69005;SDS011;56061;51.748;19.620;2022-07-23T04:34:03;16.40;;;10.10;;
69005;SDS011;56061;51.748;19.620;2022-07-23T04:36:30;15.40;;;10.10;;
69005;SDS011;56061;51.748;19.620;2022-07-23T04:38:57;16.50;;;9.70;;
69005;SDS011;56061;51.748;19.620;2022-07-23T04:41:23;14.30;;;9.70;;
69005;SDS011;56061;51.748;19.620;2022-07-23T04:43:50;15.30;;;9.50;;
69005;SDS011;56061;51.748;19.620;2022-07-23T04:46:16;13.20;;;9.60;;
69005;SDS011;56061;51.748;19.620;2022-07-23T04:48:43;13.30;;;8.80;;
69005;SDS011;56061;51.748;19.620;2022-07-23T04:51:10;16.20;;;10.40;;
69005;SDS011;56061;51.748;19.620;2022-07-23T04:53:37;16.60;;;10.80;;
69005;SDS011;56061;51.748;19.620;2022-07-23T04:56:04;16.20;;;11.00;;
69005;SDS011;56061;51.748;19.620;2022-07-23T04:58:31;18.40;;;11.80;;
69005;SDS011;56061;51.748;19.620;2022-07-23T05:00:58;20.50;;;13.80;;
69005;SDS011;56061;51.748;19.620;2022-07-23T05:03:25;20.30;;;12.20;;
69005;SDS011;56061;51.748;19.620;2022-07-23T05:05:51;21.80;;;12.70;;
69005;SDS011;56061;51.748;19.620;2022-07-23T05:08:18;18.60;;;11.80;;
69005;SDS011;56061;51.748;19.620;2022-07-23T05:10:45;17.90;;;11.10;;
69005;SDS011;56061;51.748;19.620;2022-07-23T05:13:14;21.40;;;12.20;;
69005;SDS011;56061;51.748;19.620;2022-07-23T05:15:43;25.50;;;14.10;;
69005;SDS011;56061;51.748;19.620;2022-07-23T05:18:11;30.60;;;16.30;;
69005;SDS011;56061;51.748;19.620;2022-07-23T05:20:38;34.50;;;19.40;;
69005;SDS011;56061;51.748;19.620;2022-07-23T05:23:04;36.10;;;19.90;;
69005;SDS011;56061;51.748;19.620;2022-07-23T05:25:31;28.20;;;16.30;;
69005;SDS011;56061;51.748;19.620;2022-07-23T05:27:58;22.50;;;13.80;;
69005;SDS011;56061;51.748;19.620;2022-07-23T05:30:25;18.90;;;11.80;;
69005;SDS011;56061;51.748;19.620;2022-07-23T05:32:51;16.10;;;9.90;;
69005;SDS011;56061;51.748;19.620;2022-07-23T05:35:18;16.70;;;10.20;;
69005;SDS011;56061;51.748;19.620;2022-07-23T05:37:45;14.50;;;8.90;;
69005;SDS011;56061;51.748;19.620;2022-07-23T05:40:12;11.40;;;8.10;;
69005;SDS011;56061;51.748;19.620;2022-07-23T05:42:39;10.20;;;7.10;;
69005;SDS011;56061;51.748;19.620;2022-07-23T05:45:08;10.70;;;7.10;;
69005;SDS011;56061;51.748;19.620;2022-07-23T05:47:47;11.00;;;7.30;;
69005;SDS011;56061;51.748;19.620;2022-07-23T05:50:15;10.50;;;6.80;;
69005;SDS011;56061;51.748;19.620;2022-07-23T05:52:43;9.90;;;6.50;;
69005;SDS011;56061;51.748;19.620;2022-07-23T05:55:11;9.80;;;6.20;;
69005;SDS011;56061;51.748;19.620;2022-07-23T05:57:39;9.20;;;6.40;;
69005;SDS011;56061;51.748;19.620;2022-07-23T06:00:08;8.90;;;6.30;;
69005;SDS011;56061;51.748;19.620;2022-07-23T06:02:37;9.70;;;5.90;;
69005;SDS011;56061;51.748;19.620;2022-07-23T06:05:06;8.20;;;6.20;;
69005;SDS011;56061;51.748;19.620;2022-07-23T06:07:34;10.10;;;6.10;;
69005;SDS011;56061;51.748;19.620;2022-07-23T06:10:02;8.90;;;6.00;;
69005;SDS011;56061;51.748;19.620;2022-07-23T06:12:28;10.20;;;6.20;;
69005;SDS011;56061;51.748;19.620;2022-07-23T06:14:55;9.20;;;5.90;;
69005;SDS011;56061;51.748;19.620;2022-07-23T06:17:24;10.50;;;6.60;;
69005;SDS011;56061;51.748;19.620;2022-07-23T06:19:52;9.30;;;6.10;;
69005;SDS011;56061;51.748;19.620;2022-07-23T06:22:19;8.70;;;6.00;;
69005;SDS011;56061;51.748;19.620;2022-07-23T06:24:46;9.70;;;6.10;;
69005;SDS011;56061;51.748;19.620;2022-07-23T06:27:14;10.70;;;5.80;;
69005;SDS011;56061;51.748;19.620;2022-07-23T06:29:41;10.00;;;5.90;;
69005;SDS011;56061;51.748;19.620;2022-07-23T06:32:08;9.80;;;6.70;;
69005;SDS011;56061;51.748;19.620;2022-07-23T06:34:35;7.90;;;5.80;;
69005;SDS011;56061;51.748;19.620;2022-07-23T06:37:02;11.00;;;6.80;;
69005;SDS011;56061;51.748;19.620;2022-07-23T06:39:29;9.00;;;5.70;;
69005;SDS011;56061;51.748;19.620;2022-07-23T06:41:56;8.40;;;6.30;;
69005;SDS011;56061;51.748;19.620;2022-07-23T06:44:26;8.50;;;5.60;;
69005;SDS011;56061;51.748;19.620;2022-07-23T06:46:56;8.80;;;6.20;;
69005;SDS011;56061;51.748;19.620;2022-07-23T06:49:23;9.80;;;6.50;;
69005;SDS011;56061;51.748;19.620;2022-07-23T06:51:49;8.00;;;6.10;;
69005;SDS011;56061;51.748;19.620;2022-07-23T06:54:16;10.10;;;6.70;;
69005;SDS011;56061;51.748;19.620;2022-07-23T06:56:43;10.10;;;6.50;;
69005;SDS011;56061;51.748;19.620;2022-07-23T06:59:10;10.20;;;6.40;;
69005;SDS011;56061;51.748;19.620;2022-07-23T07:01:37;8.90;;;6.50;;
69005;SDS011;56061;51.748;19.620;2022-07-23T07:04:03;8.20;;;6.30;;
69005;SDS011;56061;51.748;19.620;2022-07-23T07:06:30;9.60;;;6.70;;
69005;SDS011;56061;51.748;19.620;2022-07-23T07:08:56;9.30;;;6.60;;
69005;SDS011;56061;51.748;19.620;2022-07-23T07:11:24;10.40;;;6.60;;
69005;SDS011;56061;51.748;19.620;2022-07-23T07:13:52;9.80;;;7.00;;
69005;SDS011;56061;51.748;19.620;2022-07-23T07:16:18;11.40;;;7.20;;
69005;SDS011;56061;51.748;19.620;2022-07-23T07:18:45;10.40;;;6.70;;
69005;SDS011;56061;51.748;19.620;2022-07-23T07:21:12;8.70;;;6.70;;
69005;SDS011;56061;51.748;19.620;2022-07-23T07:23:39;9.30;;;7.20;;
69005;SDS011;56061;51.748;19.620;2022-07-23T07:26:05;10.90;;;7.00;;
69005;SDS011;56061;51.748;19.620;2022-07-23T07:28:32;9.30;;;7.40;;
69005;SDS011;56061;51.748;19.620;2022-07-23T07:30:58;9.40;;;7.20;;
69005;SDS011;56061;51.748;19.620;2022-07-23T07:33:25;10.60;;;7.50;;
69005;SDS011;56061;51.748;19.620;2022-07-23T07:35:52;10.30;;;7.40;;
69005;SDS011;56061;51.748;19.620;2022-07-23T07:38:18;9.10;;;6.90;;
69005;SDS011;56061;51.748;19.620;2022-07-23T07:40:45;10.10;;;7.30;;
69005;SDS011;56061;51.748;19.620;2022-07-23T07:43:11;10.30;;;7.50;;
69005;SDS011;56061;51.748;19.620;2022-07-23T07:45:38;9.20;;;7.10;;
69005;SDS011;56061;51.748;19.620;2022-07-23T07:48:05;9.00;;;7.30;;
69005;SDS011;56061;51.748;19.620;2022-07-23T07:50:32;9.90;;;7.30;;
69005;SDS011;56061;51.748;19.620;2022-07-23T07:52:59;8.90;;;7.30;;
69005;SDS011;56061;51.748;19.620;2022-07-23T07:55:27;9.40;;;6.70;;
69005;SDS011;56061;51.748;19.620;2022-07-23T07:57:55;10.10;;;7.10;;
69005;SDS011;56061;51.748;19.620;2022-07-23T08:00:22;11.00;;;7.30;;
69005;SDS011;56061;51.748;19.620;2022-07-23T08:02:50;9.40;;;7.10;;
69005;SDS011;56061;51.748;19.620;2022-07-23T08:05:20;11.50;;;7.40;;
69005;SDS011;56061;51.748;19.620;2022-07-23T08:07:53;9.30;;;6.80;;
69005;SDS011;56061;51.748;19.620;2022-07-23T08:10:20;9.50;;;7.50;;
69005;SDS011;56061;51.748;19.620;2022-07-23T08:12:52;9.00;;;6.90;;
69005;SDS011;56061;51.748;19.620;2022-07-23T08:15:23;9.30;;;7.30;;
69005;SDS011;56061;51.748;19.620;2022-07-23T08:17:51;9.80;;;6.80;;
69005;SDS011;56061;51.748;19.620;2022-07-23T08:20:19;9.20;;;6.90;;
69005;SDS011;56061;51.748;19.620;2022-07-23T08:22:55;8.70;;;6.50;;
69005;SDS011;56061;51.748;19.620;2022-07-23T08:25:30;9.50;;;6.90;;
69005;SDS011;56061;51.748;19.620;2022-07-23T08:28:00;9.10;;;7.10;;
69005;SDS011;56061;51.748;19.620;2022-07-23T08:30:29;10.50;;;7.10;;
69005;SDS011;56061;51.748;19.620;2022-07-23T08:33:05;11.90;;;7.00;;
69005;SDS011;56061;51.748;19.620;2022-07-23T08:35:36;9.10;;;7.10;;
69005;SDS011;56061;51.748;19.620;2022-07-23T08:38:06;9.00;;;7.00;;
69005;SDS011;56061;51.748;19.620;2022-07-23T08:40:37;10.10;;;6.80;;
69005;SDS011;56061;51.748;19.620;2022-07-23T08:43:11;9.80;;;6.90;;
69005;SDS011;56061;51.748;19.620;2022-07-23T08:45:44;11.00;;;7.00;;
69005;SDS011;56061;51.748;19.620;2022-07-23T08:48:17;10.70;;;6.90;;
69005;SDS011;56061;51.748;19.620;2022-07-23T08:50:54;9.10;;;6.80;;
69005;SDS011;56061;51.748;19.620;2022-07-23T08:53:25;10.60;;;7.20;;
69005;SDS011;56061;51.748;19.620;2022-07-23T08:55:56;8.30;;;6.90;;
69005;SDS011;56061;51.748;19.620;2022-07-23T08:58:24;9.30;;;6.90;;
69005;SDS011;56061;51.748;19.620;2022-07-23T09:00:54;11.70;;;7.50;;
69005;SDS011;56061;51.748;19.620;2022-07-23T09:03:30;10.70;;;7.30;;
69005;SDS011;56061;51.748;19.620;2022-07-23T09:05:59;8.90;;;6.60;;
69005;SDS011;56061;51.748;19.620;2022-07-23T09:08:40;8.70;;;7.40;;
69005;SDS011;56061;51.748;19.620;2022-07-23T09:11:10;10.10;;;6.90;;
69005;SDS011;56061;51.748;19.620;2022-07-23T09:13:52;9.30;;;7.20;;
69005;SDS011;56061;51.748;19.620;2022-07-23T09:16:25;9.40;;;6.50;;
69005;SDS011;56061;51.748;19.620;2022-07-23T09:19:04;9.30;;;6.40;;
69005;SDS011;56061;51.748;19.620;2022-07-23T09:21:37;9.10;;;6.10;;
69005;SDS011;56061;51.748;19.620;2022-07-23T09:24:05;10.30;;;7.00;;
69005;SDS011;56061;51.748;19.620;2022-07-23T09:26:48;8.60;;;6.80;;
69005;SDS011;56061;51.748;19.620;2022-07-23T09:29:21;9.50;;;7.10;;
69005;SDS011;56061;51.748;19.620;2022-07-23T09:31:51;10.70;;;6.80;;
69005;SDS011;56061;51.748;19.620;2022-07-23T09:36:52;9.00;;;6.80;;
69005;SDS011;56061;51.748;19.620;2022-07-23T09:39:27;8.80;;;6.50;;
69005;SDS011;56061;51.748;19.620;2022-07-23T09:41:57;9.30;;;6.80;;
69005;SDS011;56061;51.748;19.620;2022-07-23T09:44:25;8.20;;;6.60;;
69005;SDS011;56061;51.748;19.620;2022-07-23T09:47:00;8.50;;;6.80;;
69005;SDS011;56061;51.748;19.620;2022-07-23T09:49:27;10.10;;;6.80;;
69005;SDS011;56061;51.748;19.620;2022-07-23T09:51:58;9.10;;;6.60;;
69005;SDS011;56061;51.748;19.620;2022-07-23T09:54:38;9.80;;;7.20;;
69005;SDS011;56061;51.748;19.620;2022-07-23T09:57:09;8.40;;;5.90;;
69005;SDS011;56061;51.748;19.620;2022-07-23T09:59:43;9.80;;;6.70;;
69005;SDS011;56061;51.748;19.620;2022-07-23T10:02:13;8.30;;;6.50;;
69005;SDS011;56061;51.748;19.620;2022-07-23T10:04:41;8.60;;;6.60;;
69005;SDS011;56061;51.748;19.620;2022-07-23T10:07:09;9.60;;;6.90;;
69005;SDS011;56061;51.748;19.620;2022-07-23T10:09:40;9.50;;;6.70;;
69005;SDS011;56061;51.748;19.620;2022-07-23T10:12:12;8.10;;;6.60;;
69005;SDS011;56061;51.748;19.620;2022-07-23T10:14:45;10.60;;;6.60;;
69005;SDS011;56061;51.748;19.620;2022-07-23T10:17:12;11.00;;;6.90;;
69005;SDS011;56061;51.748;19.620;2022-07-23T10:19:40;9.80;;;6.70;;
69005;SDS011;56061;51.748;19.620;2022-07-23T10:22:56;9.80;;;6.70;;
69005;SDS011;56061;51.748;19.620;2022-07-23T10:31:31;10.20;;;6.60;;
69005;SDS011;56061;51.748;19.620;2022-07-23T10:37:42;9.60;;;7.00;;
69005;SDS011;56061;51.748;19.620;2022-07-23T10:40:15;11.10;;;6.90;;
69005;SDS011;56061;51.748;19.620;2022-07-23T10:42:49;10.20;;;7.30;;
69005;SDS011;56061;51.748;19.620;2022-07-23T10:45:28;9.60;;;6.40;;
69005;SDS011;56061;51.748;19.620;2022-07-23T10:51:13;9.60;;;7.00;;
69005;SDS011;56061;51.748;19.620;2022-07-23T10:54:02;8.20;;;6.80;;
69005;SDS011;56061;51.748;19.620;2022-07-23T10:56:49;9.90;;;7.10;;
69005;SDS011;56061;51.748;19.620;2022-07-23T10:59:16;10.80;;;7.10;;
69005;SDS011;56061;51.748;19.620;2022-07-23T11:01:44;8.80;;;6.80;;
69005;SDS011;56061;51.748;19.620;2022-07-23T11:04:11;9.00;;;6.90;;
69005;SDS011;56061;51.748;19.620;2022-07-23T11:17:26;9.70;;;7.20;;
69005;SDS011;56061;51.748;19.620;2022-07-23T11:22:41;8.90;;;7.60;;
69005;SDS011;56061;51.748;19.620;2022-07-23T11:27:55;9.60;;;7.10;;
69005;SDS011;56061;51.748;19.620;2022-07-23T11:30:39;13.50;;;7.80;;
69005;SDS011;56061;51.748;19.620;2022-07-23T11:35:36;10.30;;;8.10;;
69005;SDS011;56061;51.748;19.620;2022-07-23T11:38:20;10.30;;;7.90;;
69005;SDS011;56061;51.748;19.620;2022-07-23T11:40:51;10.60;;;8.10;;
69005;SDS011;56061;51.748;19.620;2022-07-23T11:43:24;11.70;;;8.30;;
69005;SDS011;56061;51.748;19.620;2022-07-23T11:45:54;10.40;;;7.70;;
69005;SDS011;56061;51.748;19.620;2022-07-23T11:48:27;10.70;;;7.80;;
69005;SDS011;56061;51.748;19.620;2022-07-23T11:50:57;10.20;;;7.90;;
69005;SDS011;56061;51.748;19.620;2022-07-23T11:53:32;12.20;;;8.20;;
69005;SDS011;56061;51.748;19.620;2022-07-23T11:56:04;16.20;;;8.50;;
69005;SDS011;56061;51.748;19.620;2022-07-23T11:58:37;9.70;;;7.50;;
69005;SDS011;56061;51.748;19.620;2022-07-23T12:01:05;11.90;;;8.40;;
69005;SDS011;56061;51.748;19.620;2022-07-23T12:03:49;11.70;;;8.80;;
69005;SDS011;56061;51.748;19.620;2022-07-23T12:06:16;10.90;;;7.90;;
69005;SDS011;56061;51.748;19.620;2022-07-23T12:08:44;10.00;;;7.90;;
69005;SDS011;56061;51.748;19.620;2022-07-23T12:11:12;11.40;;;7.70;;
69005;SDS011;56061;51.748;19.620;2022-07-23T12:13:39;11.30;;;8.30;;
69005;SDS011;56061;51.748;19.620;2022-07-23T12:16:06;9.80;;;8.20;;
69005;SDS011;56061;51.748;19.620;2022-07-23T12:18:34;10.90;;;8.40;;
69005;SDS011;56061;51.748;19.620;2022-07-23T12:21:04;10.80;;;7.80;;
69005;SDS011;56061;51.748;19.620;2022-07-23T12:23:33;11.50;;;8.20;;
69005;SDS011;56061;51.748;19.620;2022-07-23T12:26:02;10.80;;;7.70;;
69005;SDS011;56061;51.748;19.620;2022-07-23T12:28:32;10.50;;;8.10;;
69005;SDS011;56061;51.748;19.620;2022-07-23T12:31:00;9.90;;;7.60;;
69005;SDS011;56061;51.748;19.620;2022-07-23T12:33:39;11.00;;;8.30;;
69005;SDS011;56061;51.748;19.620;2022-07-23T12:36:08;9.80;;;7.70;;
69005;SDS011;56061;51.748;19.620;2022-07-23T12:38:38;9.80;;;7.50;;
69005;SDS011;56061;51.748;19.620;2022-07-23T12:41:06;11.00;;;7.50;;
69005;SDS011;56061;51.748;19.620;2022-07-23T12:43:36;11.00;;;7.90;;
69005;SDS011;56061;51.748;19.620;2022-07-23T12:46:11;10.50;;;7.80;;
69005;SDS011;56061;51.748;19.620;2022-07-23T12:51:19;9.00;;;7.80;;
69005;SDS011;56061;51.748;19.620;2022-07-23T12:54:04;10.50;;;7.60;;
69005;SDS011;56061;51.748;19.620;2022-07-23T12:56:40;11.60;;;7.80;;
69005;SDS011;56061;51.748;19.620;2022-07-23T12:59:14;10.20;;;7.20;;
69005;SDS011;56061;51.748;19.620;2022-07-23T13:01:53;11.90;;;7.60;;
69005;SDS011;56061;51.748;19.620;2022-07-23T13:04:24;10.00;;;7.80;;
69005;SDS011;56061;51.748;19.620;2022-07-23T13:09:31;27.90;;;7.90;;
69005;SDS011;56061;51.748;19.620;2022-07-23T13:12:08;23.10;;;6.70;;
69005;SDS011;56061;51.748;19.620;2022-07-23T13:14:37;15.00;;;6.20;;
69005;SDS011;56061;51.748;19.620;2022-07-23T13:17:04;18.10;;;6.90;;
69005;SDS011;56061;51.748;19.620;2022-07-23T13:19:32;14.80;;;6.80;;
69005;SDS011;56061;51.748;19.620;2022-07-23T13:22:00;13.70;;;6.50;;
69005;SDS011;56061;51.748;19.620;2022-07-23T13:24:34;12.40;;;7.20;;
69005;SDS011;56061;51.748;19.620;2022-07-23T13:27:04;9.90;;;6.10;;
69005;SDS011;56061;51.748;19.620;2022-07-23T13:29:32;9.60;;;5.60;;
69005;SDS011;56061;51.748;19.620;2022-07-23T13:31:58;10.30;;;5.80;;
69005;SDS011;56061;51.748;19.620;2022-07-23T13:34:25;9.40;;;5.80;;
69005;SDS011;56061;51.748;19.620;2022-07-23T13:36:52;9.10;;;5.70;;
69005;SDS011;56061;51.748;19.620;2022-07-23T13:39:19;11.50;;;6.00;;
69005;SDS011;56061;51.748;19.620;2022-07-23T13:41:46;9.70;;;5.20;;
69005;SDS011;56061;51.748;19.620;2022-07-23T13:44:16;11.30;;;5.50;;
69005;SDS011;56061;51.748;19.620;2022-07-23T13:46:45;10.10;;;5.60;;
69005;SDS011;56061;51.748;19.620;2022-07-23T13:49:13;9.30;;;5.50;;
69005;SDS011;56061;51.748;19.620;2022-07-23T13:51:41;8.70;;;5.00;;
69005;SDS011;56061;51.748;19.620;2022-07-23T13:54:07;7.60;;;4.20;;
69005;SDS011;56061;51.748;19.620;2022-07-23T13:56:35;8.00;;;5.10;;
69005;SDS011;56061;51.748;19.620;2022-07-23T13:59:02;7.60;;;4.60;;
69005;SDS011;56061;51.748;19.620;2022-07-23T14:01:32;7.70;;;4.20;;
69005;SDS011;56061;51.748;19.620;2022-07-23T14:04:11;8.30;;;4.50;;
69005;SDS011;56061;51.748;19.620;2022-07-23T14:06:38;9.40;;;4.60;;
69005;SDS011;56061;51.748;19.620;2022-07-23T14:09:04;6.60;;;4.10;;
69005;SDS011;56061;51.748;19.620;2022-07-23T14:11:34;7.00;;;4.00;;
69005;SDS011;56061;51.748;19.620;2022-07-23T14:14:02;8.00;;;4.80;;
69005;SDS011;56061;51.748;19.620;2022-07-23T14:16:28;8.10;;;4.90;;
69005;SDS011;56061;51.748;19.620;2022-07-23T14:18:55;6.80;;;4.40;;
69005;SDS011;56061;51.748;19.620;2022-07-23T14:21:22;7.40;;;4.20;;
69005;SDS011;56061;51.748;19.620;2022-07-23T14:23:49;9.30;;;4.80;;
69005;SDS011;56061;51.748;19.620;2022-07-23T14:26:16;8.60;;;4.50;;
69005;SDS011;56061;51.748;19.620;2022-07-23T14:28:43;6.60;;;4.10;;
69005;SDS011;56061;51.748;19.620;2022-07-23T14:31:14;8.80;;;4.70;;
69005;SDS011;56061;51.748;19.620;2022-07-23T14:33:47;7.70;;;4.00;;
69005;SDS011;56061;51.748;19.620;2022-07-23T14:36:15;7.70;;;4.30;;
69005;SDS011;56061;51.748;19.620;2022-07-23T14:38:42;7.40;;;4.40;;
69005;SDS011;56061;51.748;19.620;2022-07-23T14:41:09;7.80;;;4.20;;
69005;SDS011;56061;51.748;19.620;2022-07-23T14:43:37;8.30;;;4.20;;
69005;SDS011;56061;51.748;19.620;2022-07-23T14:46:04;7.30;;;4.20;;
69005;SDS011;56061;51.748;19.620;2022-07-23T14:48:31;6.80;;;4.20;;
69005;SDS011;56061;51.748;19.620;2022-07-23T14:50:58;7.70;;;4.30;;
69005;SDS011;56061;51.748;19.620;2022-07-23T14:53:27;10.70;;;5.10;;
69005;SDS011;56061;51.748;19.620;2022-07-23T14:55:55;8.60;;;4.50;;
69005;SDS011;56061;51.748;19.620;2022-07-23T14:58:23;7.80;;;4.50;;
69005;SDS011;56061;51.748;19.620;2022-07-23T15:00:50;9.50;;;4.40;;
69005;SDS011;56061;51.748;19.620;2022-07-23T15:03:17;8.20;;;4.40;;
69005;SDS011;56061;51.748;19.620;2022-07-23T15:05:44;8.40;;;4.70;;
69005;SDS011;56061;51.748;19.620;2022-07-23T15:08:11;7.90;;;4.60;;
69005;SDS011;56061;51.748;19.620;2022-07-23T15:10:38;8.80;;;4.50;;
69005;SDS011;56061;51.748;19.620;2022-07-23T15:13:04;7.40;;;4.60;;